Time;durP1;ratioP1;P1;durP2;ratioP2;P2;SDS_P1;SDS_P2;PMS_P1;PMS_P2;Temp;Humidity;BMP_temperature;BMP_pressure;BME280_temperature;BME280_humidity;BME280_pressure;Samples;Min_cycle;Max_cycle;Signal;HPM_P1;HPM_P2
2022/03/31 00:00:31;;;;;;;10.85;4.40;;;;;;;;;;5094576;28;20453;-64
2022/03/31 00:02:58;;;;;;;15.15;5.00;;;;;;;;;;5094407;28;20060;-64
2022/03/31 00:05:24;;;;;;;10.40;4.03;;;;;;;;;;5094353;28;20020;-63
2022/03/31 00:08:01;;;;;;;10.80;3.97;;;;;;;;;;5094223;28;20063;-64
2022/03/31 00:10:31;;;;;;;9.13;3.78;;;;;;;;;;5094346;28;20024;-64
2022/03/31 00:12:58;;;;;;;10.85;3.88;;;;;;;;;;5094258;28;20095;-64
2022/03/31 00:15:26;;;;;;;8.63;3.80;;;;;;;;;;5094183;28;20059;-64
2022/03/31 00:17:53;;;;;;;10.50;4.50;;;;;;;;;;5094244;28;20023;-63
2022/03/31 00:20:19;;;;;;;11.45;4.57;;;;;;;;;;5093901;28;20047;-64
2022/03/31 00:22:45;;;;;;;13.23;4.60;;;;;;;;;;5093762;28;20070;-64
2022/03/31 00:25:11;;;;;;;8.20;4.03;;;;;;;;;;5078918;28;20077;-64
2022/03/31 00:27:38;;;;;;;10.00;3.60;;;;;;;;;;5073670;28;20025;-64
2022/03/31 00:30:05;;;;;;;9.98;4.00;;;;;;;;;;5073777;28;20028;-64
2022/03/31 00:32:32;;;;;;;12.70;4.10;;;;;;;;;;5074187;28;20021;-63
2022/03/31 00:34:58;;;;;;;10.73;4.43;;;;;;;;;;5088487;28;20077;-64
2022/03/31 00:37:24;;;;;;;11.38;4.38;;;;;;;;;;5094439;28;20024;-64
2022/03/31 00:39:50;;;;;;;9.98;3.95;;;;;;;;;;5094227;28;20107;-63
2022/03/31 00:42:16;;;;;;;11.30;4.20;;;;;;;;;;5093915;28;20012;-65
2022/03/31 00:44:45;;;;;;;8.40;4.07;;;;;;;;;;5093648;28;20028;-65
2022/03/31 00:47:12;;;;;;;17.05;4.75;;;;;;;;;;5093536;28;20028;-66
2022/03/31 00:49:38;;;;;;;9.02;4.15;;;;;;;;;;5093691;28;20039;-66
2022/03/31 00:52:04;;;;;;;11.75;4.18;;;;;;;;;;5093569;28;20367;-65
2022/03/31 00:54:32;;;;;;;11.10;4.85;;;;;;;;;;5093398;28;20032;-65
2022/03/31 00:56:59;;;;;;;10.77;4.38;;;;;;;;;;5094052;28;20016;-63
2022/03/31 00:59:26;;;;;;;11.30;4.70;;;;;;;;;;5093397;28;20024;-64
2022/03/31 01:01:52;;;;;;;10.43;4.15;;;;;;;;;;5093706;28;20016;-63
2022/03/31 01:04:18;;;;;;;10.85;4.50;;;;;;;;;;5093854;28;20089;-63
2022/03/31 01:06:44;;;;;;;13.38;4.82;;;;;;;;;;5093665;28;20031;-65
2022/03/31 01:09:12;;;;;;;12.15;4.90;;;;;;;;;;5108328;28;20019;-66
2022/03/31 01:11:39;;;;;;;11.05;4.57;;;;;;;;;;5114000;28;20020;-64
2022/03/31 01:14:06;;;;;;;9.30;4.30;;;;;;;;;;5113778;28;20027;-63
2022/03/31 01:16:32;;;;;;;14.02;4.25;;;;;;;;;;5113819;28;20020;-65
2022/03/31 01:18:58;;;;;;;12.02;4.85;;;;;;;;;;5113756;28;20475;-66
2022/03/31 01:21:24;;;;;;;11.43;4.40;;;;;;;;;;5113804;28;20372;-65
2022/03/31 01:23:54;;;;;;;11.70;5.05;;;;;;;;;;5113318;28;20436;-68
2022/03/31 01:26:21;;;;;;;10.40;4.78;;;;;;;;;;5113317;28;20050;-64
2022/03/31 01:28:47;;;;;;;9.68;4.63;;;;;;;;;;5113559;28;20023;-64
2022/03/31 01:31:13;;;;;;;9.82;4.43;;;;;;;;;;5113098;28;20012;-65
2022/03/31 01:33:41;;;;;;;10.30;4.25;;;;;;;;;;5112948;28;20510;-65
2022/03/31 01:36:07;;;;;;;11.48;4.60;;;;;;;;;;5112887;28;20020;-64
2022/03/31 01:38:34;;;;;;;10.38;4.53;;;;;;;;;;5112934;28;20015;-64
2022/03/31 01:41:00;;;;;;;9.45;4.57;;;;;;;;;;5113105;28;20024;-64
2022/03/31 01:43:27;;;;;;;9.82;4.90;;;;;;;;;;5112910;28;20150;-64
2022/03/31 01:45:54;;;;;;;11.60;4.85;;;;;;;;;;5113404;28;20015;-63
2022/03/31 01:48:21;;;;;;;11.30;4.88;;;;;;;;;;5113448;28;20026;-64
2022/03/31 01:50:47;;;;;;;12.68;4.75;;;;;;;;;;5113364;28;20414;-64
2022/03/31 01:53:18;;;;;;;9.07;4.28;;;;;;;;;;5113134;28;20030;-64
2022/03/31 01:55:44;;;;;;;11.73;4.97;;;;;;;;;;5113089;28;20051;-64
2022/03/31 01:58:11;;;;;;;10.88;4.85;;;;;;;;;;5113235;28;20023;-65
2022/03/31 02:00:37;;;;;;;12.77;5.18;;;;;;;;;;5113258;28;20035;-64
2022/03/31 02:03:03;;;;;;;10.57;5.22;;;;;;;;;;5113274;28;20022;-64
2022/03/31 02:05:29;;;;;;;12.10;5.28;;;;;;;;;;5113197;28;20047;-65
2022/03/31 02:07:56;;;;;;;10.07;4.72;;;;;;;;;;5110930;28;20023;-63
2022/03/31 02:10:25;;;;;;;11.15;4.60;;;;;;;;;;5092921;28;20028;-64
2022/03/31 02:12:51;;;;;;;11.30;4.95;;;;;;;;;;5092337;28;20016;-64
2022/03/31 02:15:20;;;;;;;17.80;5.93;;;;;;;;;;5092572;28;20032;-65
2022/03/31 02:17:46;;;;;;;10.73;5.10;;;;;;;;;;5092473;28;20095;-64
2022/03/31 02:20:12;;;;;;;9.70;4.90;;;;;;;;;;5092046;28;20031;-64
2022/03/31 02:22:39;;;;;;;15.60;5.85;;;;;;;;;;5092434;28;20020;-64
2022/03/31 02:25:08;;;;;;;14.43;5.75;;;;;;;;;;5092192;28;20016;-66
2022/03/31 02:27:34;;;;;;;10.95;4.95;;;;;;;;;;5092225;28;20020;-65
2022/03/31 02:30:00;;;;;;;11.25;5.05;;;;;;;;;;5092495;28;20133;-64
2022/03/31 02:32:27;;;;;;;10.60;5.72;;;;;;;;;;5091737;28;20024;-66
2022/03/31 02:34:53;;;;;;;14.02;5.65;;;;;;;;;;5091392;28;20059;-65
2022/03/31 02:37:19;;;;;;;11.65;5.85;;;;;;;;;;5091903;28;20369;-66
2022/03/31 02:39:46;;;;;;;10.88;5.18;;;;;;;;;;5091555;28;20020;-63
2022/03/31 02:42:12;;;;;;;13.07;5.85;;;;;;;;;;5091560;28;20024;-65
2022/03/31 02:44:38;;;;;;;13.27;5.68;;;;;;;;;;5091521;28;20098;-65
2022/03/31 02:47:04;;;;;;;13.20;5.38;;;;;;;;;;5091566;28;20062;-65
2022/03/31 02:49:30;;;;;;;11.60;5.43;;;;;;;;;;5091410;28;20016;-66
2022/03/31 02:51:58;;;;;;;10.65;5.78;;;;;;;;;;5091654;28;20020;-65
2022/03/31 02:57:08;;;;;;;11.90;6.13;;;;;;;;;;5091576;28;20047;-65
2022/03/31 02:59:35;;;;;;;10.93;5.60;;;;;;;;;;5091258;28;20103;-65
2022/03/31 03:02:01;;;;;;;14.25;6.13;;;;;;;;;;5091434;28;20025;-66
2022/03/31 03:04:27;;;;;;;11.82;6.07;;;;;;;;;;5091879;28;20058;-66
2022/03/31 03:06:53;;;;;;;12.63;5.50;;;;;;;;;;5091576;28;20496;-64
2022/03/31 03:09:20;;;;;;;9.70;5.30;;;;;;;;;;5091200;28;20108;-64
2022/03/31 03:11:46;;;;;;;11.35;5.40;;;;;;;;;;5090923;28;20456;-65
2022/03/31 03:14:13;;;;;;;14.43;6.13;;;;;;;;;;5091131;28;20020;-64
2022/03/31 03:16:40;;;;;;;15.00;5.40;;;;;;;;;;5091324;28;20052;-64
2022/03/31 03:19:06;;;;;;;12.73;5.40;;;;;;;;;;5091291;28;20387;-63
2022/03/31 03:21:32;;;;;;;11.50;5.25;;;;;;;;;;5091452;28;20024;-64
2022/03/31 03:23:59;;;;;;;10.60;5.00;;;;;;;;;;5091591;28;20024;-66
2022/03/31 03:26:25;;;;;;;10.25;5.50;;;;;;;;;;5092251;28;20031;-63
2022/03/31 03:28:51;;;;;;;11.40;5.13;;;;;;;;;;5091829;28;20099;-63
2022/03/31 03:31:17;;;;;;;13.85;5.68;;;;;;;;;;5091536;28;20513;-63
2022/03/31 03:33:43;;;;;;;13.40;5.32;;;;;;;;;;5094060;28;20048;-64
2022/03/31 03:36:12;;;;;;;13.80;5.40;;;;;;;;;;5095579;28;20081;-64
2022/03/31 03:38:38;;;;;;;14.02;5.22;;;;;;;;;;5095909;28;20020;-64
2022/03/31 03:41:04;;;;;;;12.55;5.55;;;;;;;;;;5095622;28;20056;-66
2022/03/31 03:43:31;;;;;;;14.10;5.22;;;;;;;;;;5095424;28;20048;-65
2022/03/31 03:45:57;;;;;;;10.35;5.18;;;;;;;;;;5095430;28;20487;-65
2022/03/31 03:48:23;;;;;;;10.93;5.72;;;;;;;;;;5095465;28;20034;-64
2022/03/31 03:50:49;;;;;;;11.32;5.13;;;;;;;;;;5095288;28;20479;-64
2022/03/31 03:53:16;;;;;;;8.77;4.38;;;;;;;;;;5095244;28;20055;-64
2022/03/31 03:55:42;;;;;;;14.38;5.22;;;;;;;;;;5095327;28;20060;-64
2022/03/31 03:58:08;;;;;;;13.00;5.72;;;;;;;;;;5095084;28;20069;-64
2022/03/31 04:00:34;;;;;;;12.75;4.70;;;;;;;;;;5094546;28;20090;-64
2022/03/31 04:03:00;;;;;;;13.07;4.78;;;;;;;;;;5094409;28;20028;-64
2022/03/31 04:05:26;;;;;;;11.20;5.07;;;;;;;;;;5094518;28;20023;-65
2022/03/31 04:07:53;;;;;;;10.15;5.38;;;;;;;;;;5094421;28;20495;-65
2022/03/31 04:10:19;;;;;;;12.32;5.90;;;;;;;;;;5094426;28;20049;-64
2022/03/31 04:12:45;;;;;;;16.77;5.15;;;;;;;;;;5094240;28;20024;-65
2022/03/31 04:15:13;;;;;;;8.68;4.65;;;;;;;;;;5094109;28;20032;-65
2022/03/31 04:17:40;;;;;;;9.73;4.47;;;;;;;;;;5094161;28;20443;-65
2022/03/31 04:20:07;;;;;;;13.10;6.05;;;;;;;;;;5094104;28;20027;-65
2022/03/31 04:22:33;;;;;;;9.25;4.65;;;;;;;;;;5094151;28;20027;-64
2022/03/31 04:25:00;;;;;;;11.57;4.45;;;;;;;;;;5093988;28;20020;-65
2022/03/31 04:27:26;;;;;;;11.70;4.93;;;;;;;;;;5093837;28;20027;-64
2022/03/31 04:29:52;;;;;;;11.05;5.35;;;;;;;;;;5094044;28;20020;-64
2022/03/31 04:32:18;;;;;;;10.02;4.95;;;;;;;;;;5094081;28;20132;-63
2022/03/31 04:34:44;;;;;;;9.73;4.88;;;;;;;;;;5093674;28;20139;-63
2022/03/31 04:37:10;;;;;;;8.70;4.65;;;;;;;;;;5097372;28;20020;-63
2022/03/31 04:39:36;;;;;;;11.98;4.35;;;;;;;;;;5094491;28;20024;-62
2022/03/31 04:42:02;;;;;;;11.35;4.90;;;;;;;;;;5094332;28;20028;-62
2022/03/31 04:44:29;;;;;;;10.73;4.78;;;;;;;;;;5093528;28;20016;-64
2022/03/31 04:46:55;;;;;;;8.95;4.55;;;;;;;;;;5103705;28;20106;-64
2022/03/31 04:49:21;;;;;;;11.13;5.45;;;;;;;;;;5093345;28;20024;-65
2022/03/31 04:51:47;;;;;;;9.07;5.00;;;;;;;;;;5099989;28;20031;-64
2022/03/31 04:54:13;;;;;;;14.45;5.00;;;;;;;;;;5113554;28;20415;-64
2022/03/31 04:56:39;;;;;;;11.93;5.20;;;;;;;;;;5113574;28;20478;-65
2022/03/31 04:59:06;;;;;;;14.38;5.55;;;;;;;;;;5113735;28;20024;-64
2022/03/31 05:01:32;;;;;;;13.10;5.10;;;;;;;;;;5113467;28;20034;-64
2022/03/31 05:03:58;;;;;;;13.23;5.32;;;;;;;;;;5106364;28;20020;-63
2022/03/31 05:06:24;;;;;;;10.82;5.47;;;;;;;;;;5093206;28;20028;-64
2022/03/31 05:08:50;;;;;;;12.25;5.20;;;;;;;;;;5092945;28;20055;-62
2022/03/31 05:11:17;;;;;;;13.55;5.15;;;;;;;;;;5092520;28;20035;-64
2022/03/31 05:13:43;;;;;;;11.85;5.53;;;;;;;;;;5096598;28;20026;-64
2022/03/31 05:16:09;;;;;;;10.90;5.30;;;;;;;;;;5092656;28;20666;-64
2022/03/31 05:18:35;;;;;;;18.88;5.60;;;;;;;;;;5092749;28;20673;-64
2022/03/31 05:21:01;;;;;;;9.30;4.80;;;;;;;;;;5092760;28;20028;-63
2022/03/31 05:23:27;;;;;;;13.98;4.85;;;;;;;;;;5092659;28;20080;-64
2022/03/31 05:25:53;;;;;;;14.68;5.35;;;;;;;;;;5092436;28;20025;-65
2022/03/31 05:28:19;;;;;;;10.13;5.20;;;;;;;;;;5092378;28;20024;-63
2022/03/31 05:30:45;;;;;;;11.65;5.07;;;;;;;;;;5092245;28;20101;-64
2022/03/31 05:33:11;;;;;;;8.48;4.50;;;;;;;;;;5092011;28;20027;-63
2022/03/31 05:35:38;;;;;;;11.77;4.70;;;;;;;;;;5091897;28;20044;-63
2022/03/31 05:38:04;;;;;;;64.80;18.25;;;;;;;;;;5092133;28;20107;-64
2022/03/31 05:40:30;;;;;;;43.28;15.45;;;;;;;;;;5099145;28;20019;-63
2022/03/31 05:42:56;;;;;;;26.15;10.63;;;;;;;;;;5112486;28;20016;-64
2022/03/31 05:45:22;;;;;;;26.13;7.63;;;;;;;;;;5112102;28;20023;-63
2022/03/31 05:47:49;;;;;;;23.00;7.65;;;;;;;;;;5112151;28;20436;-64
2022/03/31 05:50:15;;;;;;;25.73;8.90;;;;;;;;;;5112414;28;20028;-63
2022/03/31 05:52:44;;;;;;;28.45;9.80;;;;;;;;;;5112454;28;20442;-64
2022/03/31 05:55:11;;;;;;;24.02;8.75;;;;;;;;;;5111400;28;20538;-64
2022/03/31 05:57:38;;;;;;;22.52;8.65;;;;;;;;;;5112190;28;20084;-63
2022/03/31 06:00:05;;;;;;;25.30;8.63;;;;;;;;;;5112341;28;20378;-63
2022/03/31 06:02:31;;;;;;;28.38;8.65;;;;;;;;;;5112359;28;20462;-63
2022/03/31 06:04:57;;;;;;;28.27;8.65;;;;;;;;;;5112140;28;20406;-63
2022/03/31 06:07:23;;;;;;;24.80;8.02;;;;;;;;;;5111918;28;20475;-63
2022/03/31 06:09:49;;;;;;;29.52;9.65;;;;;;;;;;5112141;28;20016;-63
2022/03/31 06:12:16;;;;;;;30.70;9.23;;;;;;;;;;5112244;28;20054;-66
2022/03/31 06:14:42;;;;;;;22.50;9.40;;;;;;;;;;5102933;28;20057;-63
2022/03/31 06:17:08;;;;;;;32.00;9.40;;;;;;;;;;5091763;28;20028;-63
2022/03/31 06:19:35;;;;;;;22.58;8.52;;;;;;;;;;5091867;28;20463;-64
2022/03/31 06:22:01;;;;;;;23.33;8.45;;;;;;;;;;5091782;28;20103;-63
2022/03/31 06:24:27;;;;;;;27.13;8.63;;;;;;;;;;5091806;28;20036;-63
2022/03/31 06:26:56;;;;;;;22.45;8.20;;;;;;;;;;5091939;28;20020;-64
2022/03/31 06:29:22;;;;;;;19.15;7.80;;;;;;;;;;5091773;28;20480;-64
2022/03/31 06:31:49;;;;;;;22.88;8.13;;;;;;;;;;5091861;28;20024;-63
2022/03/31 06:34:15;;;;;;;23.67;7.68;;;;;;;;;;5091480;28;20047;-63
2022/03/31 06:36:41;;;;;;;23.25;8.10;;;;;;;;;;5091608;28;20059;-64
2022/03/31 06:39:07;;;;;;;23.00;7.47;;;;;;;;;;5091679;28;20020;-64
2022/03/31 06:41:33;;;;;;;25.20;7.50;;;;;;;;;;5091652;28;20024;-63
2022/03/31 06:43:59;;;;;;;20.77;6.85;;;;;;;;;;5091670;28;20054;-63
2022/03/31 06:46:25;;;;;;;25.00;8.18;;;;;;;;;;5091587;28;20035;-63
2022/03/31 06:48:51;;;;;;;21.15;7.40;;;;;;;;;;5091597;28;20368;-63
2022/03/31 06:51:18;;;;;;;22.10;8.25;;;;;;;;;;5091568;28;20544;-63
2022/03/31 06:53:44;;;;;;;21.92;7.38;;;;;;;;;;5091540;28;20032;-63
2022/03/31 06:56:13;;;;;;;25.10;8.65;;;;;;;;;;5091403;28;20016;-63
2022/03/31 06:58:40;;;;;;;19.00;8.02;;;;;;;;;;5092049;28;20484;-64
2022/03/31 07:01:06;;;;;;;22.52;8.73;;;;;;;;;;5091707;28;20024;-63
2022/03/31 07:03:32;;;;;;;17.77;7.55;;;;;;;;;;5091588;28;20024;-63
2022/03/31 07:05:58;;;;;;;18.30;7.57;;;;;;;;;;5091337;28;20012;-64
2022/03/31 07:08:24;;;;;;;18.30;7.50;;;;;;;;;;5095294;28;20099;-63
2022/03/31 07:10:51;;;;;;;20.17;7.35;;;;;;;;;;5095553;28;20024;-64
2022/03/31 07:13:18;;;;;;;21.33;8.15;;;;;;;;;;5095498;28;20096;-64
2022/03/31 07:15:44;;;;;;;16.70;7.15;;;;;;;;;;5095392;28;20031;-63
2022/03/31 07:18:10;;;;;;;21.48;7.95;;;;;;;;;;5095335;28;20055;-63
2022/03/31 07:20:36;;;;;;;18.27;7.05;;;;;;;;;;5095164;28;20024;-63
2022/03/31 07:23:03;;;;;;;19.02;7.60;;;;;;;;;;5094867;28;20083;-64
2022/03/31 07:25:29;;;;;;;14.70;6.68;;;;;;;;;;5095034;28;20066;-63
2022/03/31 07:27:56;;;;;;;15.48;7.38;;;;;;;;;;5095095;28;20085;-63
2022/03/31 07:30:22;;;;;;;22.65;7.60;;;;;;;;;;5095178;28;20684;-64
2022/03/31 07:32:56;;;;;;;15.45;8.05;;;;;;;;;;5094928;28;20531;-64
2022/03/31 07:35:24;;;;;;;19.27;7.75;;;;;;;;;;5094678;28;20048;-63
2022/03/31 07:37:51;;;;;;;17.70;8.10;;;;;;;;;;5095197;28;20020;-64
2022/03/31 07:40:17;;;;;;;18.65;7.85;;;;;;;;;;5094937;28;20027;-64
2022/03/31 07:42:44;;;;;;;17.70;6.90;;;;;;;;;;5094736;28;20506;-64
2022/03/31 07:45:11;;;;;;;14.30;7.22;;;;;;;;;;5094728;28;20039;-64
2022/03/31 07:47:38;;;;;;;14.90;6.63;;;;;;;;;;5094483;28;20103;-63
2022/03/31 07:50:04;;;;;;;16.95;7.28;;;;;;;;;;5094313;28;20039;-64
2022/03/31 07:52:30;;;;;;;14.38;6.28;;;;;;;;;;5094599;28;20058;-64
2022/03/31 07:54:56;;;;;;;13.23;7.13;;;;;;;;;;5094345;28;20039;-64
2022/03/31 07:57:22;;;;;;;12.68;6.63;;;;;;;;;;5094564;28;20095;-64
2022/03/31 07:59:48;;;;;;;18.48;6.80;;;;;;;;;;5094272;28;20028;-63
2022/03/31 08:02:17;;;;;;;14.48;6.03;;;;;;;;;;5076117;28;20352;-64
2022/03/31 08:04:43;;;;;;;17.67;6.63;;;;;;;;;;5094418;28;20473;-64
2022/03/31 08:07:09;;;;;;;13.68;6.57;;;;;;;;;;5094246;28;20020;-63
2022/03/31 08:09:35;;;;;;;14.40;6.88;;;;;;;;;;5094265;28;20039;-63
2022/03/31 08:12:01;;;;;;;14.43;7.10;;;;;;;;;;5076534;28;20387;-63
2022/03/31 08:14:29;;;;;;;15.82;7.22;;;;;;;;;;5092941;28;20103;-63
2022/03/31 08:16:55;;;;;;;16.05;7.85;;;;;;;;;;5094019;28;20035;-63
2022/03/31 08:19:22;;;;;;;13.00;6.50;;;;;;;;;;5093329;28;20023;-64
2022/03/31 08:21:48;;;;;;;12.77;6.28;;;;;;;;;;5093986;28;20020;-64
2022/03/31 08:24:15;;;;;;;13.65;6.38;;;;;;;;;;5093993;28;20020;-64
2022/03/31 08:26:41;;;;;;;15.82;6.57;;;;;;;;;;5094082;28;20020;-64
2022/03/31 08:29:11;;;;;;;22.27;7.43;;;;;;;;;;5097062;28;20045;-63
2022/03/31 08:31:37;;;;;;;26.38;7.88;;;;;;;;;;5114008;28;20088;-63
2022/03/31 08:34:04;;;;;;;24.67;7.13;;;;;;;;;;5105431;28;20032;-63
2022/03/31 08:36:30;;;;;;;21.52;7.43;;;;;;;;;;5093521;28;20059;-63
2022/03/31 08:38:57;;;;;;;22.27;6.97;;;;;;;;;;5093512;28;20137;-64
2022/03/31 08:41:26;;;;;;;18.63;7.75;;;;;;;;;;5093264;28;20491;-63
2022/03/31 08:43:53;;;;;;;17.08;6.85;;;;;;;;;;5102802;28;20027;-63
2022/03/31 08:46:20;;;;;;;18.75;6.85;;;;;;;;;;5114116;28;20023;-63
2022/03/31 08:48:46;;;;;;;19.25;7.28;;;;;;;;;;5113885;28;20052;-63
2022/03/31 08:51:12;;;;;;;16.70;6.75;;;;;;;;;;5113642;28;20364;-63
2022/03/31 08:53:38;;;;;;;18.98;7.25;;;;;;;;;;5110968;28;21795;-63
2022/03/31 08:56:05;;;;;;;18.60;7.90;;;;;;;;;;5101336;28;20073;-63
2022/03/31 08:58:31;;;;;;;18.48;6.63;;;;;;;;;;5113179;28;20034;-63
2022/03/31 09:00:57;;;;;;;42.05;9.00;;;;;;;;;;5113188;28;20024;-61
2022/03/31 09:03:33;;;;;;;16.67;7.07;;;;;;;;;;5114244;28;20433;-59
2022/03/31 09:05:59;;;;;;;27.80;7.70;;;;;;;;;;5113898;28;20015;-59
2022/03/31 09:08:25;;;;;;;17.17;6.90;;;;;;;;;;5113401;28;20057;-59
2022/03/31 09:10:57;;;;;;;19.05;6.38;;;;;;;;;;5113453;28;20734;-60
2022/03/31 09:13:30;;;;;;;26.07;7.43;;;;;;;;;;5113655;28;20023;-60
2022/03/31 09:15:58;;;;;;;15.25;6.28;;;;;;;;;;5114220;28;20032;-61
2022/03/31 09:18:26;;;;;;;19.85;6.28;;;;;;;;;;5114095;28;20422;-61
2022/03/31 09:20:53;;;;;;;18.55;6.90;;;;;;;;;;5114118;28;20486;-60
2022/03/31 09:23:23;;;;;;;20.33;6.80;;;;;;;;;;5113742;28;20034;-60
2022/03/31 09:25:53;;;;;;;17.98;6.10;;;;;;;;;;5098677;28;20027;-60
2022/03/31 09:28:23;;;;;;;16.92;6.15;;;;;;;;;;5112939;28;20111;-60
2022/03/31 09:30:53;;;;;;;13.80;6.75;;;;;;;;;;5102516;28;20577;-60
2022/03/31 09:33:27;;;;;;;14.40;6.00;;;;;;;;;;5092283;28;20027;-60
2022/03/31 09:35:57;;;;;;;15.63;6.43;;;;;;;;;;5092347;28;20081;-60
2022/03/31 09:38:23;;;;;;;15.32;5.47;;;;;;;;;;5092517;28;20399;-59
2022/03/31 09:40:49;;;;;;;15.63;5.85;;;;;;;;;;5100346;28;20032;-60
2022/03/31 09:43:15;;;;;;;11.38;5.72;;;;;;;;;;5103135;28;20026;-61
2022/03/31 09:45:42;;;;;;;14.00;5.78;;;;;;;;;;5092454;28;20107;-61
2022/03/31 09:48:19;;;;;;;13.73;6.00;;;;;;;;;;5092020;28;20024;-59
2022/03/31 09:50:45;;;;;;;13.15;6.20;;;;;;;;;;5092385;28;20339;-60
2022/03/31 09:53:12;;;;;;;12.50;5.80;;;;;;;;;;5092311;28;20466;-60
2022/03/31 09:55:38;;;;;;;15.27;6.15;;;;;;;;;;5092177;28;20032;-60
2022/03/31 09:58:07;;;;;;;14.93;6.03;;;;;;;;;;5093408;28;20078;-59
2022/03/31 10:00:33;;;;;;;16.73;6.28;;;;;;;;;;5099078;28;20028;-59
2022/03/31 10:03:00;;;;;;;16.38;5.72;;;;;;;;;;5092251;28;20686;-60
2022/03/31 10:05:27;;;;;;;19.23;5.75;;;;;;;;;;5091945;28;20012;-60
2022/03/31 10:07:53;;;;;;;15.13;5.97;;;;;;;;;;5092191;28;20023;-59
2022/03/31 10:10:19;;;;;;;18.30;6.28;;;;;;;;;;5091958;28;20022;-59
2022/03/31 10:12:56;;;;;;;17.27;6.50;;;;;;;;;;5091999;28;20062;-60
2022/03/31 10:15:30;;;;;;;15.98;6.07;;;;;;;;;;5091810;28;20028;-61
2022/03/31 10:17:57;;;;;;;16.10;6.28;;;;;;;;;;5091994;28;20027;-61
2022/03/31 10:20:23;;;;;;;12.15;5.65;;;;;;;;;;5091785;28;20024;-61
2022/03/31 10:25:41;;;;;;;13.40;5.70;;;;;;;;;;5092060;28;20047;-61
2022/03/31 10:28:23;;;;;;;22.27;7.00;;;;;;;;;;5091957;28;20149;-60
2022/03/31 10:30:57;;;;;;;13.40;5.70;;;;;;;;;;5091824;28;20050;-61
2022/03/31 10:33:31;;;;;;;18.65;6.28;;;;;;;;;;5089067;28;20093;-61
2022/03/31 10:36:10;;;;;;;16.15;5.82;;;;;;;;;;5111654;28;20402;-60
2022/03/31 10:38:38;;;;;;;17.33;5.75;;;;;;;;;;5100055;28;20048;-61
2022/03/31 10:41:08;;;;;;;10.63;5.15;;;;;;;;;;5090879;28;20028;-60
2022/03/31 10:43:37;;;;;;;14.52;5.80;;;;;;;;;;5091552;28;20068;-60
2022/03/31 10:46:13;;;;;;;17.27;5.32;;;;;;;;;;5091426;28;20020;-60
2022/03/31 10:48:39;;;;;;;17.08;5.60;;;;;;;;;;5091235;28;20038;-60
2022/03/31 10:51:10;;;;;;;14.43;5.60;;;;;;;;;;5105526;28;20053;-60
2022/03/31 10:53:38;;;;;;;12.43;5.05;;;;;;;;;;5089827;28;20383;-60
2022/03/31 10:56:15;;;;;;;13.05;6.18;;;;;;;;;;5099418;28;20408;-61
2022/03/31 10:58:41;;;;;;;11.13;5.68;;;;;;;;;;5110982;28;20034;-62
2022/03/31 11:01:08;;;;;;;16.35;6.32;;;;;;;;;;5111414;28;20023;-68
2022/03/31 11:03:34;;;;;;;13.57;5.53;;;;;;;;;;5112267;28;20023;-60
2022/03/31 11:06:04;;;;;;;16.75;5.45;;;;;;;;;;5112355;28;20027;-61
2022/03/31 11:08:30;;;;;;;12.48;5.43;;;;;;;;;;5112265;28;20024;-60
2022/03/31 11:10:57;;;;;;;10.07;4.88;;;;;;;;;;5112383;28;20462;-61
2022/03/31 11:13:33;;;;;;;14.88;5.60;;;;;;;;;;5105478;28;20095;-60
2022/03/31 11:16:01;;;;;;;13.35;5.38;;;;;;;;;;5091897;28;20060;-61
2022/03/31 11:18:27;;;;;;;11.88;4.97;;;;;;;;;;5091984;28;20020;-62
2022/03/31 11:21:00;;;;;;;15.50;5.68;;;;;;;;;;5091144;28;20103;-60
2022/03/31 11:23:26;;;;;;;13.13;5.47;;;;;;;;;;5090964;28;20020;-60
2022/03/31 11:25:53;;;;;;;11.65;5.85;;;;;;;;;;5091141;28;20020;-61
2022/03/31 11:28:19;;;;;;;15.18;5.55;;;;;;;;;;5073215;28;20470;-60
2022/03/31 11:30:46;;;;;;;14.05;5.03;;;;;;;;;;5090902;28;20085;-60
2022/03/31 11:33:14;;;;;;;15.40;5.28;;;;;;;;;;5090948;28;20519;-61
2022/03/31 11:35:40;;;;;;;12.15;5.15;;;;;;;;;;5091811;28;20036;-60
2022/03/31 11:38:10;;;;;;;15.20;5.40;;;;;;;;;;5108314;28;20108;-61
2022/03/31 11:40:38;;;;;;;16.60;6.00;;;;;;;;;;5106490;28;20497;-61
2022/03/31 11:43:05;;;;;;;15.93;6.63;;;;;;;;;;5090937;28;20024;-61
2022/03/31 11:45:33;;;;;;;13.65;5.57;;;;;;;;;;5091377;28;20462;-61
2022/03/31 11:48:04;;;;;;;20.42;6.32;;;;;;;;;;5091093;28;20031;-61
2022/03/31 11:50:31;;;;;;;15.95;6.50;;;;;;;;;;5091540;28;20017;-61
2022/03/31 11:52:58;;;;;;;16.42;6.00;;;;;;;;;;5111128;28;20050;-61
2022/03/31 11:55:24;;;;;;;17.08;5.70;;;;;;;;;;5114758;28;20066;-61
2022/03/31 11:57:54;;;;;;;12.48;5.60;;;;;;;;;;5114975;28;20023;-60
2022/03/31 12:00:22;;;;;;;21.50;7.60;;;;;;;;;;5114913;28;20023;-61
2022/03/31 12:03:15;;;;;;;27.25;8.27;;;;;;;;;;5114830;28;20077;-60
2022/03/31 12:05:42;;;;;;;28.92;8.60;;;;;;;;;;5092557;28;20497;-61
2022/03/31 12:08:08;;;;;;;28.30;8.50;;;;;;;;;;5114589;28;20019;-60
2022/03/31 12:10:34;;;;;;;24.08;7.78;;;;;;;;;;5114272;28;20047;-61
2022/03/31 12:13:01;;;;;;;23.52;8.13;;;;;;;;;;5114318;28;20379;-62
2022/03/31 12:15:28;;;;;;;31.35;12.80;;;;;;;;;;5114405;28;20031;-61
2022/03/31 12:18:08;;;;;;;34.67;18.05;;;;;;;;;;5114476;28;20016;-61
2022/03/31 12:20:36;;;;;;;53.20;26.00;;;;;;;;;;5111099;28;20052;-61
2022/03/31 12:23:03;;;;;;;37.15;19.60;;;;;;;;;;5099526;28;20016;-61
2022/03/31 12:25:30;;;;;;;46.53;18.08;;;;;;;;;;5102182;28;20070;-61
2022/03/31 12:28:02;;;;;;;46.95;18.05;;;;;;;;;;5104204;28;20047;-61
2022/03/31 12:30:38;;;;;;;38.95;16.05;;;;;;;;;;5104634;28;20028;-61
2022/03/31 12:33:04;;;;;;;35.30;16.45;;;;;;;;;;5104023;28;20019;-60
2022/03/31 12:35:31;;;;;;;38.38;17.17;;;;;;;;;;5097494;28;20040;-61
2022/03/31 12:37:57;;;;;;;40.60;17.10;;;;;;;;;;5095773;28;20062;-61
2022/03/31 12:40:25;;;;;;;37.08;15.48;;;;;;;;;;5114031;28;20096;-60
2022/03/31 12:42:55;;;;;;;38.78;16.40;;;;;;;;;;5113702;28;20467;-61
2022/03/31 12:45:21;;;;;;;32.08;14.50;;;;;;;;;;5113526;28;20092;-61
2022/03/31 12:47:48;;;;;;;33.38;15.57;;;;;;;;;;5110713;28;20106;-61
2022/03/31 12:50:18;;;;;;;33.28;14.05;;;;;;;;;;5099032;28;20561;-61
2022/03/31 12:52:53;;;;;;;32.38;13.70;;;;;;;;;;5113653;28;20454;-61
2022/03/31 12:55:21;;;;;;;29.92;14.07;;;;;;;;;;5113394;28;20035;-61
2022/03/31 12:57:54;;;;;;;32.25;13.93;;;;;;;;;;5110391;28;20039;-61
2022/03/31 13:00:22;;;;;;;27.05;12.50;;;;;;;;;;5113578;28;20509;-61
2022/03/31 13:02:48;;;;;;;29.65;13.68;;;;;;;;;;5113358;28;20724;-61
2022/03/31 13:05:24;;;;;;;23.50;12.65;;;;;;;;;;5107004;28;20028;-61
2022/03/31 13:07:52;;;;;;;26.85;11.77;;;;;;;;;;5113259;28;20028;-61
2022/03/31 13:10:18;;;;;;;24.73;11.38;;;;;;;;;;5113365;28;20015;-61
2022/03/31 13:12:45;;;;;;;25.30;11.57;;;;;;;;;;5113322;28;20130;-60
2022/03/31 13:15:13;;;;;;;27.70;11.73;;;;;;;;;;5104529;28;20032;-61
2022/03/31 13:17:42;;;;;;;23.33;11.25;;;;;;;;;;5107244;28;20026;-63
2022/03/31 13:20:10;;;;;;;24.13;11.02;;;;;;;;;;5101714;28;20015;-63
2022/03/31 13:22:36;;;;;;;23.92;10.77;;;;;;;;;;5104084;28;20429;-61
2022/03/31 13:25:02;;;;;;;21.70;10.25;;;;;;;;;;5110520;28;20012;-62
2022/03/31 13:27:28;;;;;;;20.35;9.60;;;;;;;;;;5107403;28;20592;-61
2022/03/31 13:29:55;;;;;;;24.55;10.43;;;;;;;;;;5108941;28;20065;-61
2022/03/31 13:32:21;;;;;;;23.17;11.00;;;;;;;;;;5105939;28;20023;-61
2022/03/31 13:34:48;;;;;;;21.80;8.90;;;;;;;;;;5092322;28;20047;-61
2022/03/31 13:37:18;;;;;;;28.70;9.68;;;;;;;;;;5092651;28;20020;-61
2022/03/31 13:39:45;;;;;;;24.42;10.98;;;;;;;;;;5092559;28;20440;-61
2022/03/31 13:42:11;;;;;;;31.63;11.23;;;;;;;;;;5074445;28;20046;-61
2022/03/31 13:44:38;;;;;;;27.63;10.77;;;;;;;;;;5092307;28;20024;-61
2022/03/31 13:47:05;;;;;;;25.83;10.32;;;;;;;;;;5097540;28;20020;-60
2022/03/31 13:49:31;;;;;;;21.92;10.95;;;;;;;;;;5103814;28;20023;-60
2022/03/31 13:51:57;;;;;;;25.00;9.60;;;;;;;;;;5112679;28;20012;-61
2022/03/31 13:54:34;;;;;;;24.35;8.98;;;;;;;;;;5109217;28;20028;-61
2022/03/31 13:57:00;;;;;;;23.70;8.93;;;;;;;;;;5104065;28;20466;-60
2022/03/31 14:02:13;;;;;;;22.70;8.90;;;;;;;;;;5102646;28;20156;-61
2022/03/31 14:04:39;;;;;;;23.88;9.73;;;;;;;;;;5100351;28;20024;-60
2022/03/31 14:07:09;;;;;;;20.33;8.90;;;;;;;;;;5105795;28;20011;-60
2022/03/31 14:09:36;;;;;;;19.25;7.88;;;;;;;;;;5105866;28;20072;-60
2022/03/31 14:12:03;;;;;;;17.65;7.88;;;;;;;;;;5103246;28;20069;-61
2022/03/31 14:14:29;;;;;;;18.48;8.70;;;;;;;;;;5107618;28;20024;-61
2022/03/31 14:16:56;;;;;;;22.52;8.90;;;;;;;;;;5108050;28;20027;-61
2022/03/31 14:19:33;;;;;;;22.85;7.88;;;;;;;;;;5098105;28;20015;-61
2022/03/31 14:21:59;;;;;;;18.05;7.70;;;;;;;;;;5083258;28;20040;-61
2022/03/31 14:24:25;;;;;;;15.68;7.65;;;;;;;;;;5111748;28;20126;-60
2022/03/31 14:26:51;;;;;;;23.20;7.88;;;;;;;;;;5094628;28;20480;-61
2022/03/31 14:29:18;;;;;;;19.02;8.88;;;;;;;;;;5111515;28;20028;-61
2022/03/31 14:31:45;;;;;;;21.75;7.28;;;;;;;;;;5103490;28;20481;-61
2022/03/31 14:34:14;;;;;;;15.23;7.18;;;;;;;;;;5102731;28;20490;-61
2022/03/31 14:36:43;;;;;;;24.63;8.82;;;;;;;;;;5095208;28;20052;-61